Webcam 1 more information Webcam 1


Webcam 2 more information Webcam 2


avvertimento per Temporali more information blitzortung!


altri nostri siti meteo:

Pomeziameteo 1Sito sul meteo

Pomeziameteo DashboardSito sul meteo

Caput FrigorisSito sul meteo

BarcellonameteoSito sul meteo

MeteoipassiSito sul meteo

ViterbometeoSito sul meteo

MeteotortoretoSito sul meteo

Stazione LineameteoSito sul meteo



Temporali Inizio validita dal: 25-05-2019 13:00 Fino: 18:59 Allerta per: Temporali Livello: Giallo info button

Report METAR

   
LIBP - Pescara
Dati ricevuti: 25-05-2019 19:50
Sereno  
Sereno  
   Vento: NE 5.6 km/h
Vento: NE 5.6 km/h
Temperatura: 20°C
P.to Rugiada: 12°C
Umidita: 60%
Barometro: 1013 hPa
Visibilita: oltre 10 km
dettagli cloud: Sereno
LIBP 251750Z 06003KT CAVOK 20/12 Q1013
LIRZ - Perugia
Dati ricevuti: 25-05-2019 19:50
Molto nuvoloso  
Molto nuvoloso  
   Vento: Nord 5.6 km/h
Vento: Nord 5.6 km/h
Temperatura: 18°C
P.to Rugiada: 15°C
Umidita: 83%
Barometro: 1013 hPa
Nuvole: Molto nuvoloso
Visibilita: oltre 10 km
dettagli cloud: Molto nuvoloso 4000 ft
LIRZ 251750Z 35003KT 9999 BKN040 18/15 Q1013
LIQN - Rieti
Dati ricevuti: 25-05-2019 19:50
Poche nuvole  
Poche nuvole  
   Vento: Variabile 5.6 km/h
Vento: Variabile 5.6 km/h
Temperatura: 19°C
P.to Rugiada: 13°C
Umidita: 68%
Barometro: 1014 hPa
Nuvole: Poche nuvole
Visibilita: oltre 10 km
dettagli cloud: Poche nuvole 4800 ft
LIQN 251750Z VRB03KT 9999 FEW048 19/13 Q1014
LIPY - Falconara
Dati ricevuti: 25-05-2019 19:50
Parzialmente nuvoloso  
Parzialmente nuvoloso  
   Vento: SE 9.3 km/h
Vento: SE 9.3 km/h
Temperatura: 21°C
P.to Rugiada: 15°C
Umidita: 69%
Barometro: 1013 hPa
Nuvole: Parzialmente nuvoloso
Visibilita: oltre 10 km
dettagli cloud: Parzialmente nuvoloso 6000 ft
LIPY 251750Z 14005KT 110V180 9999 SCT060 21/15 Q1013
  

Script sviluppato da  Saratoga-weather.org Adattato per il modello da  Weerstation Leuven

Potete trovare le nostre info meteo anche a:

Weather Underground

AWEKAS

Citizen Weather Observer Program (CWOP)

HAMweather, WeatherForYou, PWS Weather

Strumentazione usata:

Stazione meteo
Oregon 928

Programma gestore dati meteo
WVIEW

Server per i dati meteo
Pc-WDS5

Oregon 928

WVIEW

Pc-WDS5